createdAt,value
2019-01-11T00:11:50.951Z,69
2019-01-11T00:27:06.824Z,68.8
2019-01-11T00:42:17.602Z,69.2
2019-01-11T00:57:28.190Z,70.4
2019-01-11T01:12:38.796Z,71.4
2019-01-11T01:27:49.539Z,72.7
2019-01-11T01:43:01.234Z,72
2019-01-11T01:58:10.467Z,73.2
2019-01-11T02:13:21.076Z,73.6
2019-01-11T02:28:31.626Z,74
2019-01-11T02:43:43.223Z,74.5
2019-01-11T02:58:52.713Z,74
2019-01-11T03:14:03.109Z,73.5
2019-01-11T03:29:10.320Z,70.9
2019-01-11T03:44:24.155Z,70.3
2019-01-11T03:59:34.641Z,71.5
2019-01-11T04:14:45.314Z,66.9
2019-01-11T04:29:48.600Z,67.7
2019-01-11T04:45:06.477Z,68.8
2019-01-11T05:00:17.108Z,66.8
2019-01-11T05:15:27.649Z,64.4
2019-01-11T05:30:38.329Z,65.1
2019-01-11T05:45:48.955Z,65.2
2019-01-11T06:00:59.713Z,65
2019-01-11T06:16:10.156Z,64.2
2019-01-11T06:31:20.729Z,65
2019-01-11T06:46:30.502Z,64.8
2019-01-11T07:01:42.001Z,65.7
2019-01-11T07:16:52.656Z,65.6
2019-01-11T07:32:03.881Z,68.2
2019-01-11T07:47:08.898Z,69.8
2019-01-11T08:02:24.715Z,72.5
2019-01-11T08:17:35.468Z,71.3
2019-01-11T08:32:46.316Z,72.3
2019-01-11T08:47:56.954Z,72.4
2019-01-11T09:03:08.107Z,74
2019-01-11T09:18:18.595Z,73.2
2019-01-11T09:33:29.436Z,73.9
2019-01-11T09:48:40.359Z,74.8
2019-01-11T10:03:51.249Z,74.4
2019-01-11T10:19:02.091Z,74.2
2019-01-11T10:34:13.039Z,76.3
2019-01-11T10:49:24.095Z,75.7
2019-01-11T11:04:31.996Z,76.2
2019-01-11T11:19:46.015Z,78.4
2019-01-11T11:34:57.093Z,75.8
2019-01-11T11:50:08.227Z,74.6
2019-01-11T12:05:11.813Z,77.5
2019-01-11T12:20:30.355Z,79.2
2019-01-11T12:35:41.453Z,81.4
2019-01-11T12:50:52.472Z,81.6
2019-01-11T13:06:03.545Z,79.9
2019-01-11T13:21:14.625Z,80.3
2019-01-11T13:36:25.757Z,79.7
2019-01-11T13:51:36.904Z,78.6
2019-01-11T14:06:47.919Z,79.8
2019-01-11T14:21:56.936Z,81.3
2019-01-11T14:37:10.166Z,83.2
2019-01-11T14:52:21.324Z,83.7
2019-01-11T15:07:32.447Z,83.8
2019-01-11T15:22:37.025Z,83.5
2019-01-11T15:37:54.902Z,84.1
2019-01-11T15:53:06.152Z,86.3
2019-01-11T16:08:17.406Z,88
2019-01-11T16:23:28.698Z,88.8
2019-01-11T16:38:40.050Z,89
2019-01-11T16:53:51.370Z,89.2
2019-01-11T17:09:02.932Z,89.6
2019-01-11T17:24:14.485Z,88.5
2019-01-11T17:39:22.485Z,87.6
2019-01-11T17:54:37.178Z,87.8
2019-01-11T18:09:48.922Z,88.7
2019-01-11T18:25:00.460Z,89
2019-01-11T18:40:03.492Z,89.3
2019-01-11T18:55:29.117Z,89.2
2019-01-11T19:10:35.196Z,89.5
2019-01-11T19:25:46.923Z,89.5
2019-01-11T19:40:58.653Z,90
2019-01-11T19:56:10.496Z,90.2
2019-01-11T20:11:22.070Z,89.7
2019-01-11T20:26:33.816Z,89.5
2019-01-11T20:41:45.665Z,89.5
2019-01-11T20:56:51.916Z,88.4
2019-01-11T21:12:09.641Z,88.2
2019-01-11T21:27:23.775Z,89.7
2019-01-11T21:42:33.449Z,90.7
2019-01-11T21:57:45.452Z,90.8
2019-01-11T22:12:57.409Z,89
2019-01-11T22:28:09.280Z,87.8
2019-01-11T22:43:21.302Z,88.1
2019-01-11T22:58:33.343Z,87.8
2019-01-11T23:13:42.407Z,88.2
2019-01-11T23:28:57.253Z,87.1
2019-01-11T23:44:09.332Z,87.5
2019-01-11T23:59:21.295Z,87.7
